Time;durP1;ratioP1;P1;durP2;ratioP2;P2;SDS_P1;SDS_P2;PMS_P1;PMS_P2;Temp;Humidity;BMP_temperature;BMP_pressure;BME280_temperature;BME280_humidity;BME280_pressure;Samples;Min_cycle;Max_cycle;Signal;HPM_P1;HPM_P2
2022/08/17 00:00:34;;;;;;;8.73;5.17;;;;;;;24.14;46.51;96836.91;5030023;28;20457;-70
2022/08/17 00:03:05;;;;;;;6.43;5.83;;;;;;;24.19;46.64;96834.31;5031530;28;20793;-69
2022/08/17 00:05:33;;;;;;;9.63;5.50;;;;;;;24.16;46.42;96830.25;5028283;28;20410;-70
2022/08/17 00:07:59;;;;;;;8.80;5.57;;;;;;;24.15;46.58;96835.88;5033884;28;20517;-70
2022/08/17 00:10:25;;;;;;;5.70;5.20;;;;;;;24.08;46.69;96831.50;5028581;28;20585;-69
2022/08/17 00:12:51;;;;;;;5.43;4.93;;;;;;;24.03;46.69;96826.09;5031415;28;20651;-69
2022/08/17 00:15:18;;;;;;;5.73;5.17;;;;;;;24.07;46.52;96831.75;5026758;28;20489;-69
2022/08/17 00:17:47;;;;;;;9.27;5.70;;;;;;;24.05;46.62;96829.34;5024247;28;20194;-69
2022/08/17 00:20:12;;;;;;;9.97;5.33;;;;;;;24.07;46.41;96827.19;5030877;28;20434;-71
2022/08/17 00:22:38;;;;;;;5.63;5.20;;;;;;;24.10;46.20;96825.06;5031969;28;20419;-70
2022/08/17 00:25:06;;;;;;;6.10;5.57;;;;;;;24.05;46.44;96826.66;5015668;28;20202;-70
2022/08/17 00:27:32;;;;;;;5.87;5.37;;;;;;;23.98;46.49;96820.66;5023193;28;20251;-69
2022/08/17 00:29:57;;;;;;;5.30;4.90;;;;;;;23.91;46.57;96817.34;5024594;28;20821;-70
2022/08/17 00:32:23;;;;;;;8.30;5.17;;;;;;;23.87;46.75;96821.56;5027382;28;20458;-70
2022/08/17 00:34:49;;;;;;;5.57;5.17;;;;;;;23.85;47.05;96815.63;5026550;28;20188;-70
2022/08/17 00:37:14;;;;;;;6.10;5.50;;;;;;;23.85;46.79;96807.59;5027440;28;20255;-68
2022/08/17 00:39:40;;;;;;;5.57;5.07;;;;;;;23.88;46.88;96815.16;5029388;28;20702;-70
2022/08/17 00:42:16;;;;;;;7.27;4.80;;;;;;;23.88;46.90;96812.47;5030039;28;20238;-71
2022/08/17 00:44:43;;;;;;;7.33;5.77;;;;;;;23.86;46.93;96815.41;5028714;28;20186;-72
2022/08/17 00:47:09;;;;;;;6.10;5.50;;;;;;;23.84;47.12;96814.84;5029520;28;20968;-69
2022/08/17 00:49:34;;;;;;;6.00;5.40;;;;;;;23.87;47.02;96810.84;5023678;28;20426;-69
2022/08/17 00:52:07;;;;;;;5.77;4.87;;;;;;;23.78;47.03;96813.97;5029587;28;20707;-69
2022/08/17 00:54:36;;;;;;;6.60;5.87;;;;;;;23.77;46.78;96816.88;5027358;28;20199;-68
2022/08/17 00:57:14;;;;;;;5.70;5.30;;;;;;;23.73;47.07;96811.22;5028200;28;21150;-69
2022/08/17 00:59:43;;;;;;;5.90;5.00;;;;;;;23.76;47.26;96816.06;5028828;28;20423;-69
2022/08/17 01:02:11;;;;;;;7.00;5.73;;;;;;;23.66;47.23;96813.25;5012555;28;20439;-69
2022/08/17 01:04:37;;;;;;;7.17;6.50;;;;;;;23.72;47.45;96809.59;5027706;28;20792;-69
2022/08/17 01:07:04;;;;;;;6.70;5.40;;;;;;;23.63;47.29;96808.41;5025927;28;20423;-71
2022/08/17 01:09:30;;;;;;;6.00;5.40;;;;;;;23.69;47.12;96806.59;5007244;28;20241;-69
2022/08/17 01:11:56;;;;;;;9.73;6.50;;;;;;;23.61;47.32;96808.66;5009229;28;20443;-69
2022/08/17 01:14:24;;;;;;;7.50;6.60;;;;;;;23.57;47.29;96810.19;5027841;28;20187;-69
2022/08/17 01:16:50;;;;;;;8.87;6.47;;;;;;;23.54;47.46;96812.56;5025065;28;20203;-70
2022/08/17 01:19:19;;;;;;;6.53;5.90;;;;;;;23.56;47.54;96810.44;5014050;28;20434;-71
2022/08/17 01:22:18;;;;;;;8.10;5.63;;;;;;;23.59;47.62;96808.09;5018964;28;20459;-70
2022/08/17 01:24:47;;;;;;;10.07;5.60;;;;;;;23.67;47.46;96806.84;5032387;28;20494;-70
2022/08/17 01:27:14;;;;;;;5.57;5.10;;;;;;;23.73;47.32;96805.84;5029127;28;20435;-70
2022/08/17 01:29:43;;;;;;;6.00;5.50;;;;;;;23.70;46.97;96810.91;5039698;28;20423;-73
2022/08/17 01:32:08;;;;;;;8.90;5.50;;;;;;;23.63;47.19;96811.06;5030854;28;20454;-70
2022/08/17 01:34:34;;;;;;;8.00;5.57;;;;;;;23.58;47.33;96803.78;5033130;28;20446;-71
2022/08/17 01:37:00;;;;;;;5.63;5.13;;;;;;;23.55;47.44;96804.28;5031611;28;20216;-70
2022/08/17 01:39:36;;;;;;;8.90;6.03;;;;;;;23.55;47.54;96817.66;5028621;28;20254;-70
2022/08/17 01:42:30;;;;;;;7.73;5.80;;;;;;;23.55;47.72;96819.53;5038119;28;20525;-69
2022/08/17 01:44:57;;;;;;;7.13;6.30;;;;;;;23.54;47.50;96823.25;5032359;28;20874;-72
2022/08/17 01:47:23;;;;;;;8.00;6.00;;;;;;;23.50;47.64;96814.09;5034025;28;20426;-71
2022/08/17 01:49:49;;;;;;;9.00;6.23;;;;;;;23.37;47.96;96820.59;5037223;28;20437;-69
2022/08/17 01:52:15;;;;;;;11.97;6.27;;;;;;;23.35;48.05;96817.34;5035904;28;20745;-70
2022/08/17 01:54:42;;;;;;;9.13;6.47;;;;;;;23.38;48.19;96814.16;5024777;28;20426;-69
2022/08/17 01:57:09;;;;;;;9.70;6.10;;;;;;;23.36;48.17;96818.97;5031397;28;20469;-69
2022/08/17 01:59:35;;;;;;;6.60;5.90;;;;;;;23.37;48.36;96810.69;5026548;28;20454;-71
2022/08/17 02:02:01;;;;;;;9.87;6.13;;;;;;;23.30;48.12;96823.44;5031043;28;20530;-69
2022/08/17 02:04:26;;;;;;;9.03;5.90;;;;;;;23.31;48.19;96817.03;5033279;28;20179;-69
2022/08/17 02:06:52;;;;;;;7.13;6.17;;;;;;;23.27;48.34;96814.00;5032676;28;20180;-70
2022/08/17 02:09:21;;;;;;;7.40;6.10;;;;;;;23.29;48.30;96821.81;5033007;28;20223;-68
2022/08/17 02:11:46;;;;;;;8.87;6.50;;;;;;;23.24;48.62;96821.72;5038896;28;20213;-72
2022/08/17 02:14:12;;;;;;;6.10;5.30;;;;;;;23.29;48.73;96827.94;5035533;28;20509;-69
2022/08/17 02:16:39;;;;;;;9.70;5.77;;;;;;;23.25;48.64;96831.34;5028275;28;20235;-69
2022/08/17 02:19:11;;;;;;;6.50;5.80;;;;;;;23.25;48.62;96823.34;5031765;28;20517;-70
2022/08/17 02:21:37;;;;;;;8.33;6.63;;;;;;;23.22;48.51;96832.66;5039338;28;20885;-69
2022/08/17 02:24:04;;;;;;;12.63;6.40;;;;;;;23.15;48.52;96827.44;5028729;28;20851;-69
2022/08/17 02:26:30;;;;;;;6.47;5.87;;;;;;;23.11;48.88;96822.84;5029891;28;20569;-69
2022/08/17 02:28:55;;;;;;;8.23;6.43;;;;;;;23.12;48.87;96827.94;5036938;28;20914;-70
2022/08/17 02:31:21;;;;;;;6.60;6.00;;;;;;;23.07;49.20;96819.81;5032590;28;20208;-69
2022/08/17 02:33:46;;;;;;;11.30;5.87;;;;;;;23.00;49.16;96816.50;5031886;28;20537;-69
2022/08/17 02:36:12;;;;;;;7.53;6.73;;;;;;;22.97;49.36;96820.47;5012747;28;20211;-70
2022/08/17 02:38:39;;;;;;;7.63;6.17;;;;;;;23.08;49.48;96825.97;5030444;28;20180;-72
2022/08/17 02:41:05;;;;;;;7.53;6.03;;;;;;;23.17;49.41;96817.31;5035397;28;20562;-69
2022/08/17 02:43:31;;;;;;;6.20;5.40;;;;;;;23.30;48.79;96820.75;5032741;28;20425;-71
2022/08/17 02:45:56;;;;;;;6.40;5.80;;;;;;;23.39;48.64;96824.63;5031705;28;20651;-70
2022/08/17 02:48:22;;;;;;;8.43;6.50;;;;;;;23.39;48.53;96821.97;5029736;28;20635;-69
2022/08/17 02:50:48;;;;;;;6.43;5.80;;;;;;;23.31;48.72;96825.84;5038589;28;20290;-71
2022/08/17 02:53:13;;;;;;;7.33;5.33;;;;;;;23.32;48.70;96821.31;5039818;28;20663;-69
2022/08/17 02:55:40;;;;;;;7.50;5.97;;;;;;;23.27;48.77;96818.56;5031983;28;20211;-70
2022/08/17 02:58:07;;;;;;;9.70;6.17;;;;;;;23.27;49.01;96814.00;5031562;28;20730;-69
2022/08/17 03:00:37;;;;;;;7.30;6.60;;;;;;;23.23;48.87;96818.25;5030539;28;20805;-69
2022/08/17 03:03:04;;;;;;;6.43;5.83;;;;;;;23.15;49.12;96821.28;5028665;28;20422;-69
2022/08/17 03:05:31;;;;;;;7.37;5.87;;;;;;;23.12;49.20;96827.94;5024339;28;20422;-70
2022/08/17 03:07:57;;;;;;;6.93;5.80;;;;;;;23.10;49.14;96824.69;5028277;28;20434;-70
2022/08/17 03:10:23;;;;;;;8.23;5.87;;;;;;;23.07;49.45;96825.16;5010668;28;20918;-73
2022/08/17 03:12:49;;;;;;;7.10;5.80;;;;;;;23.08;49.46;96826.78;5038628;28;20655;-69
2022/08/17 03:15:18;;;;;;;8.70;5.93;;;;;;;23.10;49.40;96824.69;5036013;28;20461;-70
2022/08/17 03:17:43;;;;;;;8.63;6.10;;;;;;;23.08;49.53;96824.09;5044218;28;20913;-71
2022/08/17 03:20:09;;;;;;;9.93;6.30;;;;;;;23.07;49.52;96819.00;5020186;28;20438;-71
2022/08/17 03:22:40;;;;;;;6.77;6.20;;;;;;;23.07;49.53;96829.69;5028589;28;20271;-72
2022/08/17 03:25:08;;;;;;;6.73;6.13;;;;;;;23.05;49.56;96826.47;5037700;28;20518;-72
2022/08/17 03:27:34;;;;;;;7.17;6.47;;;;;;;23.07;49.77;96832.38;5025428;28;20783;-68
2022/08/17 03:30:02;;;;;;;8.73;5.50;;;;;;;23.09;49.80;96847.09;5038422;28;20580;-69
2022/08/17 03:32:27;;;;;;;6.53;5.63;;;;;;;23.07;49.67;96851.88;5027708;28;20477;-69
2022/08/17 03:34:58;;;;;;;6.30;5.80;;;;;;;23.02;49.73;96849.94;5041449;28;20555;-68
2022/08/17 03:37:24;;;;;;;7.53;5.63;;;;;;;23.04;49.76;96857.72;5034050;28;21122;-69
2022/08/17 03:39:49;;;;;;;6.37;5.77;;;;;;;23.06;49.86;96858.28;5029350;28;20788;-69
2022/08/17 03:42:18;;;;;;;6.37;5.87;;;;;;;23.08;49.74;96852.69;5039053;28;20327;-69
2022/08/17 03:44:48;;;;;;;6.70;5.10;;;;;;;23.11;49.54;96853.03;5045676;28;20266;-69
2022/08/17 03:58:09;;;;;;;6.53;5.93;;;;;;;22.92;50.09;96863.13;5014355;28;20486;-72
2022/08/17 04:00:35;;;;;;;6.67;5.97;;;;;;;22.94;50.05;96855.69;5037346;28;20893;-70
2022/08/17 04:03:01;;;;;;;5.83;5.20;;;;;;;22.92;50.16;96865.78;5017457;28;20271;-69
2022/08/17 04:05:27;;;;;;;6.90;6.20;;;;;;;22.84;50.14;96866.97;5036786;28;20496;-70
2022/08/17 04:07:52;;;;;;;6.20;5.70;;;;;;;22.86;50.00;96864.88;5021679;28;20440;-70
2022/08/17 04:10:18;;;;;;;7.70;5.67;;;;;;;22.90;50.12;96856.41;5042168;28;20666;-69
2022/08/17 04:12:49;;;;;;;6.00;5.40;;;;;;;22.97;50.56;96854.38;5028031;28;20214;-70
2022/08/17 04:15:15;;;;;;;7.47;6.60;;;;;;;23.02;49.65;96862.50;5019719;28;20271;-69
2022/08/17 04:17:43;;;;;;;5.70;5.20;;;;;;;22.94;50.28;96852.19;5032350;28;20959;-69
2022/08/17 04:20:10;;;;;;;6.60;5.90;;;;;;;22.86;50.06;96862.22;5024670;28;20428;-69
2022/08/17 04:22:35;;;;;;;6.87;5.70;;;;;;;22.84;50.30;96868.84;5030681;28;20487;-69
2022/08/17 04:25:07;;;;;;;6.60;5.53;;;;;;;22.86;50.42;96874.78;5020254;28;20984;-69
2022/08/17 04:27:33;;;;;;;6.37;5.60;;;;;;;22.87;49.94;96873.72;5026243;28;20234;-69
2022/08/17 04:29:59;;;;;;;6.13;5.53;;;;;;;22.83;50.29;96872.56;5027153;28;20791;-69
2022/08/17 04:32:24;;;;;;;7.03;5.73;;;;;;;22.78;50.27;96869.81;5018913;28;20674;-69
2022/08/17 04:34:49;;;;;;;6.73;5.70;;;;;;;22.73;50.36;96880.41;5034685;28;20183;-69
2022/08/17 04:37:15;;;;;;;6.90;6.13;;;;;;;22.74;50.58;96876.69;5021893;28;20729;-70
2022/08/17 04:42:05;;;;;;;8.70;6.30;;;;;;;22.70;50.58;96881.66;5035506;28;20190;-71
2022/08/17 04:42:26;;;;;;;6.80;6.10;;;;;;;22.68;50.79;96886.47;5033673;28;20309;-68
2022/08/17 04:44:51;;;;;;;6.37;5.80;;;;;;;22.74;50.66;96901.53;5037141;28;20417;-69
2022/08/17 04:47:17;;;;;;;6.80;5.27;;;;;;;22.83;50.56;96907.31;5026397;28;20603;-69
2022/08/17 04:49:42;;;;;;;7.20;5.50;;;;;;;22.90;50.16;96899.16;5046917;28;20190;-70
2022/08/17 04:52:08;;;;;;;7.00;5.70;;;;;;;22.85;50.17;96907.88;5043592;28;20260;-70
2022/08/17 04:54:33;;;;;;;7.93;6.00;;;;;;;22.83;50.23;96905.44;5040497;28;20665;-68
2022/08/17 04:56:59;;;;;;;6.47;5.73;;;;;;;22.79;50.66;96904.31;5036974;28;20211;-69
2022/08/17 04:59:24;;;;;;;7.57;5.60;;;;;;;22.85;50.57;96900.66;5032673;28;20187;-70
2022/08/17 05:01:50;;;;;;;9.77;6.40;;;;;;;22.82;50.46;96905.69;5045758;28;20684;-68
2022/08/17 05:04:19;;;;;;;7.93;6.50;;;;;;;22.78;50.25;96908.03;5039773;28;20198;-71
2022/08/17 05:06:45;;;;;;;7.50;6.50;;;;;;;22.81;50.44;96917.41;5021233;28;20423;-70
2022/08/17 05:09:11;;;;;;;7.73;6.33;;;;;;;22.85;50.45;96906.00;5038178;28;20434;-69
2022/08/17 05:11:36;;;;;;;9.10;6.40;;;;;;;22.88;50.22;96899.38;5020220;28;20203;-70
2022/08/17 05:14:02;;;;;;;10.80;6.30;;;;;;;22.89;50.38;96900.19;5024901;28;20226;-69
2022/08/17 05:16:28;;;;;;;8.27;6.17;;;;;;;22.90;50.33;96899.94;5018091;28;20211;-69
2022/08/17 05:18:54;;;;;;;8.30;6.33;;;;;;;22.96;50.46;96898.19;5025867;28;20184;-69
2022/08/17 05:21:21;;;;;;;8.50;6.43;;;;;;;23.04;50.31;96897.81;5019671;28;20442;-69
2022/08/17 05:23:46;;;;;;;9.50;6.90;;;;;;;23.03;49.81;96906.88;5026852;28;20184;-69
2022/08/17 05:26:15;;;;;;;9.47;6.00;;;;;;;23.06;49.99;96906.38;5018914;28;20468;-69
2022/08/17 05:28:40;;;;;;;7.53;6.70;;;;;;;23.07;49.99;96916.00;5029667;28;20196;-70
2022/08/17 05:31:06;;;;;;;7.50;5.87;;;;;;;23.14;50.05;96906.00;5023490;28;20517;-70
2022/08/17 05:33:35;;;;;;;11.53;6.50;;;;;;;23.16;49.97;96903.91;5023691;28;20557;-69
2022/08/17 05:36:03;;;;;;;9.40;6.60;;;;;;;23.19;50.11;96907.16;5020820;28;20242;-70
2022/08/17 05:38:30;;;;;;;10.03;6.50;;;;;;;23.23;49.98;96910.97;5017298;28;20509;-70
2022/08/17 05:40:57;;;;;;;6.53;5.60;;;;;;;23.32;50.12;96906.84;5033314;28;20948;-71
2022/08/17 05:43:31;;;;;;;11.37;5.40;;;;;;;23.43;49.93;96897.97;5033451;28;20427;-72
2022/08/17 05:46:02;;;;;;;7.17;6.10;;;;;;;23.57;49.85;96900.28;5026933;28;20427;-70
2022/08/17 05:48:33;;;;;;;9.17;6.73;;;;;;;23.67;49.27;96903.16;5024837;28;20460;-70
2022/08/17 05:50:58;;;;;;;9.67;5.97;;;;;;;23.78;48.93;96907.59;5026719;28;20459;-71
2022/08/17 05:53:32;;;;;;;6.70;5.23;;;;;;;23.89;48.96;96910.41;5026124;28;20433;-72
2022/08/17 05:56:24;;;;;;;6.20;5.57;;;;;;;24.04;48.63;96910.66;5019943;28;20287;-70
2022/08/17 05:59:33;;;;;;;10.73;6.33;;;;;;;24.20;48.23;96918.88;5019685;28;20476;-72
2022/08/17 06:02:08;;;;;;;6.20;5.67;;;;;;;24.36;47.57;96907.31;4990158;28;20495;-73
2022/08/17 06:04:48;;;;;;;7.70;6.30;;;;;;;24.48;47.89;96906.41;5021735;28;20863;-73
2022/08/17 06:07:31;;;;;;;10.33;5.70;;;;;;;24.55;47.72;96912.41;5017136;28;20779;-72
2022/08/17 06:10:02;;;;;;;8.57;6.17;;;;;;;24.57;47.54;96926.34;5026411;28;20799;-70
2022/08/17 06:12:48;;;;;;;9.03;5.40;;;;;;;24.56;47.81;96931.94;5028710;28;21160;-71
2022/08/17 06:15:23;;;;;;;10.57;5.97;;;;;;;24.61;47.63;96937.38;5022685;28;20427;-71
2022/08/17 06:17:52;;;;;;;7.77;5.27;;;;;;;24.67;47.65;96934.50;5022663;28;20781;-71
2022/08/17 06:20:17;;;;;;;9.07;5.83;;;;;;;24.79;47.71;96941.63;5021515;28;20489;-70
2022/08/17 06:22:48;;;;;;;14.80;5.20;;;;;;;24.91;46.97;96941.47;5029291;28;20415;-72
2022/08/17 06:25:15;;;;;;;7.30;5.73;;;;;;;25.06;46.67;96940.84;5021670;28;20241;-69
2022/08/17 06:27:46;;;;;;;9.90;5.73;;;;;;;25.23;46.03;96941.53;5029731;28;20429;-71
2022/08/17 06:30:15;;;;;;;9.53;5.13;;;;;;;25.38;46.18;96932.03;5022928;28;20489;-70
2022/08/17 06:32:45;;;;;;;6.27;5.23;;;;;;;25.48;45.77;96937.50;4997315;28;20427;-68
2022/08/17 06:35:15;;;;;;;7.33;4.70;;;;;;;25.54;45.21;96941.84;5020037;28;20461;-70
2022/08/17 06:37:53;;;;;;;5.87;5.10;;;;;;;25.67;44.33;96950.53;5022506;28;20449;-69
2022/08/17 06:40:49;;;;;;;5.50;4.90;;;;;;;25.86;44.32;96967.84;5027494;28;20941;-69
2022/08/17 06:43:31;;;;;;;6.40;4.60;;;;;;;26.06;44.07;96974.47;5027664;28;20420;-68
2022/08/17 06:46:24;;;;;;;9.50;4.67;;;;;;;26.27;43.50;96980.81;5017817;28;20997;-70
2022/08/17 06:48:52;;;;;;;14.67;5.00;;;;;;;26.46;43.16;96975.81;5020664;28;20441;-70
2022/08/17 06:51:24;;;;;;;12.37;5.37;;;;;;;26.53;42.98;96968.31;5020645;28;20466;-70
2022/08/17 06:53:58;;;;;;;9.20;5.13;;;;;;;26.58;42.58;96956.78;5014226;28;20518;-70
2022/08/17 06:56:31;;;;;;;5.50;4.80;;;;;;;26.61;42.89;96958.13;5025602;28;21140;-69
2022/08/17 06:58:57;;;;;;;9.73;5.10;;;;;;;26.62;42.91;96941.75;5027356;28;20461;-70
2022/08/17 07:01:29;;;;;;;10.07;4.70;;;;;;;26.74;42.73;96938.81;5027549;28;20461;-69
2022/08/17 07:04:08;;;;;;;8.70;5.50;;;;;;;26.90;42.25;96946.97;5028425;28;20434;-71
2022/08/17 07:06:37;;;;;;;7.43;5.10;;;;;;;27.04;41.95;96942.72;5018417;28;20556;-71
2022/08/17 07:09:07;;;;;;;8.23;5.23;;;;;;;27.07;41.29;96941.38;5026778;28;20422;-72
2022/08/17 07:11:42;;;;;;;8.80;4.93;;;;;;;27.06;41.42;96929.00;5020954;28;20483;-68
2022/08/17 07:14:30;;;;;;;7.00;4.30;;;;;;;27.09;41.24;96931.16;5026270;28;20852;-69
2022/08/17 07:16:57;;;;;;;5.33;4.27;;;;;;;27.21;40.56;96931.72;5011126;28;20466;-69
2022/08/17 07:19:26;;;;;;;6.67;4.63;;;;;;;27.32;40.60;96926.34;5026870;28;20444;-69
2022/08/17 07:21:59;;;;;;;4.67;4.27;;;;;;;27.49;40.33;96921.56;5016640;28;20472;-70
2022/08/17 07:24:27;;;;;;;6.77;4.70;;;;;;;27.68;40.05;96927.22;5021729;28;21170;-68
2022/08/17 07:27:14;;;;;;;8.50;4.80;;;;;;;27.86;39.29;96919.63;5026643;28;20419;-69
2022/08/17 07:29:45;;;;;;;7.70;4.60;;;;;;;28.07;39.19;96931.19;5023237;28;20430;-69
2022/08/17 07:32:13;;;;;;;9.30;5.53;;;;;;;28.28;38.92;96933.88;5021781;28;21098;-69
2022/08/17 07:35:19;;;;;;;8.80;5.10;;;;;;;28.51;39.00;96935.13;5022388;28;20434;-71
2022/08/17 07:38:06;;;;;;;7.53;4.30;;;;;;;28.72;37.48;96930.50;5011746;28;20447;-70
2022/08/17 07:40:43;;;;;;;12.30;5.10;;;;;;;28.92;37.38;96939.59;5021806;28;20434;-69
2022/08/17 07:43:19;;;;;;;11.77;5.57;;;;;;;29.04;36.52;96944.63;5015040;28;20430;-70
2022/08/17 07:48:42;;;;;;;6.97;4.50;;;;;;;29.20;35.96;96943.44;5019594;28;20428;-70
2022/08/17 07:51:17;;;;;;;13.73;4.37;;;;;;;29.17;36.10;96949.41;5022506;28;20459;-70
2022/08/17 07:53:44;;;;;;;5.87;4.10;;;;;;;29.04;35.88;96948.13;5022892;28;20438;-70
2022/08/17 07:56:09;;;;;;;7.87;5.00;;;;;;;28.94;36.40;96951.69;5020922;28;20553;-69
2022/08/17 07:58:35;;;;;;;7.83;4.60;;;;;;;28.84;36.25;96961.72;5017135;28;20472;-71
2022/08/17 08:01:09;;;;;;;4.97;4.47;;;;;;;28.73;37.05;96967.16;5027848;28;20208;-68
2022/08/17 08:03:41;;;;;;;6.60;4.30;;;;;;;28.62;37.02;96969.03;5027937;28;20288;-69
2022/08/17 08:06:19;;;;;;;5.17;4.67;;;;;;;28.50;37.03;96972.06;5022315;28;20923;-68
2022/08/17 08:08:50;;;;;;;11.73;4.90;;;;;;;28.46;36.69;96975.59;5021185;28;20430;-69
2022/08/17 08:11:33;;;;;;;6.20;4.20;;;;;;;28.45;37.08;96979.34;5023415;28;20458;-69
2022/08/17 08:14:28;;;;;;;4.50;4.10;;;;;;;28.44;37.33;96975.03;5004351;28;20474;-69
2022/08/17 08:17:02;;;;;;;4.50;4.10;;;;;;;28.43;36.88;96978.81;5026905;28;20466;-69
2022/08/17 08:19:29;;;;;;;6.07;4.80;;;;;;;28.42;37.26;96979.91;5024241;28;20429;-69
2022/08/17 08:22:06;;;;;;;7.33;4.50;;;;;;;28.36;37.10;96979.91;5010510;28;20545;-68
2022/08/17 08:24:50;;;;;;;6.20;4.70;;;;;;;28.31;37.29;96979.94;5018025;28;20802;-69
2022/08/17 08:27:45;;;;;;;12.33;4.60;;;;;;;28.24;37.68;96990.16;5028419;28;20503;-69
2022/08/17 08:30:14;;;;;;;5.90;4.47;;;;;;;28.19;37.56;96982.91;5026871;28;20426;-71
2022/08/17 08:32:58;;;;;;;8.97;4.37;;;;;;;28.09;38.00;96992.91;5020082;28;20451;-69
2022/08/17 08:35:29;;;;;;;6.23;5.10;;;;;;;28.02;37.88;96996.63;5023015;28;20419;-69
2022/08/17 08:38:29;;;;;;;7.17;4.93;;;;;;;27.96;38.18;96992.34;5020723;28;20442;-69
2022/08/17 08:41:19;;;;;;;6.87;4.90;;;;;;;27.92;38.37;96999.34;5024000;28;20477;-68
2022/08/17 08:44:07;;;;;;;7.17;4.63;;;;;;;27.84;38.65;96997.19;5027594;28;20410;-68
2022/08/17 08:46:48;;;;;;;6.57;4.80;;;;;;;27.78;38.77;97014.41;5021024;28;20513;-69
2022/08/17 08:49:48;;;;;;;10.17;4.93;;;;;;;27.71;38.87;97011.97;5027717;28;20517;-70
2022/08/17 08:52:38;;;;;;;8.43;4.80;;;;;;;27.67;39.08;97013.56;5026733;28;20940;-70
2022/08/17 08:55:27;;;;;;;12.27;5.20;;;;;;;27.61;39.12;97010.06;5028992;28;20452;-73
2022/08/17 08:57:57;;;;;;;6.70;4.43;;;;;;;27.59;39.27;97013.03;5026676;28;20457;-70
2022/08/17 09:00:24;;;;;;;5.73;5.10;;;;;;;27.59;39.54;97017.63;5038854;28;20533;-69
2022/08/17 09:03:11;;;;;;;14.80;4.63;;;;;;;27.51;40.39;97008.19;5024093;28;20472;-69
2022/08/17 09:05:55;;;;;;;7.13;4.83;;;;;;;27.47;40.87;97007.09;5023803;28;20425;-68
2022/08/17 09:08:46;;;;;;;5.73;4.67;;;;;;;27.41;41.55;97011.63;5027713;28;20484;-70
2022/08/17 09:11:48;;;;;;;8.77;4.93;;;;;;;27.34;42.42;97016.47;5027571;28;20538;-70
2022/08/17 09:14:32;;;;;;;6.50;5.00;;;;;;;27.29;42.07;97011.09;5028914;28;20438;-69
2022/08/17 09:17:11;;;;;;;9.03;5.13;;;;;;;27.24;43.31;97013.75;5022743;28;20558;-68
2022/08/17 09:19:51;;;;;;;8.43;5.97;;;;;;;27.14;46.63;97018.03;5020340;28;20431;-69
2022/08/17 09:22:30;;;;;;;8.77;5.57;;;;;;;27.13;47.53;97027.16;5019571;28;20451;-67
2022/08/17 09:25:03;;;;;;;6.70;5.50;;;;;;;27.02;48.72;97040.84;5021395;28;20434;-68
2022/08/17 09:27:50;;;;;;;8.27;5.60;;;;;;;26.96;49.41;97053.47;5023259;28;20421;-69
2022/08/17 09:30:17;;;;;;;8.53;5.63;;;;;;;26.93;49.84;97049.41;5021325;28;20441;-70
2022/08/17 09:32:48;;;;;;;11.50;6.00;;;;;;;26.87;48.70;97036.19;5020178;28;21136;-69
2022/08/17 09:35:22;;;;;;;10.63;5.60;;;;;;;26.89;50.02;97044.81;5020098;28;20427;-73
2022/08/17 09:38:44;;;;;;;8.33;5.93;;;;;;;26.87;51.90;97045.09;5024724;28;21002;-68
2022/08/17 09:41:18;;;;;;;8.00;5.90;;;;;;;26.81;52.08;97038.88;5020325;28;20465;-69
2022/08/17 09:44:20;;;;;;;12.37;7.10;;;;;;;26.76;52.50;97041.50;5041044;28;20952;-70
2022/08/17 09:46:55;;;;;;;13.50;7.83;;;;;;;26.72;52.48;97037.72;5027770;28;20445;-68
2022/08/17 09:49:29;;;;;;;9.03;7.13;;;;;;;26.70;52.53;97018.38;5038092;28;20435;-69
2022/08/17 09:52:01;;;;;;;7.53;5.93;;;;;;;26.67;53.35;97035.00;5030926;28;20480;-70
2022/08/17 09:54:29;;;;;;;14.60;7.50;;;;;;;26.64;54.32;97046.28;5038548;28;20458;-71
2022/08/17 09:57:47;;;;;;;11.60;5.30;;;;;;;26.52;50.31;97041.91;5030116;28;20457;-71
2022/08/17 10:00:22;;;;;;;6.53;5.03;;;;;;;26.47;49.92;97039.19;5022316;28;20448;-68
2022/08/17 10:02:56;;;;;;;6.93;5.63;;;;;;;26.47;51.54;97041.06;5027238;28;20426;-70
2022/08/17 10:05:43;;;;;;;11.23;5.97;;;;;;;26.43;54.65;97056.09;5040281;28;20435;-68
2022/08/17 10:08:30;;;;;;;7.40;6.30;;;;;;;26.38;55.04;97054.19;5025798;28;20438;-67
2022/08/17 10:12:14;;;;;;;10.60;6.10;;;;;;;26.45;54.71;97052.09;5031278;28;20447;-71
2022/08/17 10:14:14;;;;;;;8.20;6.70;;;;;;;26.53;54.64;97046.22;5027170;28;20438;-72
2022/08/17 10:16:43;;;;;;;9.00;6.70;;;;;;;26.59;54.79;97054.31;5026530;28;20465;-68
2022/08/17 10:19:19;;;;;;;7.30;6.60;;;;;;;26.59;56.07;97065.06;5029852;28;20510;-68
2022/08/17 10:27:30;;;;;;;6.53;5.90;;;;;;;26.66;55.43;97066.44;5030664;28;20882;-71
2022/08/17 10:29:59;;;;;;;7.13;6.43;;;;;;;26.71;56.41;97081.81;5028842;28;20774;-70
2022/08/17 10:32:25;;;;;;;6.23;5.40;;;;;;;26.73;55.40;97076.16;5020473;28;20532;-72
2022/08/17 10:35:09;;;;;;;8.03;6.60;;;;;;;26.83;56.08;97076.25;5040198;28;20452;-70
2022/08/17 10:37:56;;;;;;;7.40;6.70;;;;;;;26.89;56.34;97085.97;5027617;28;20230;-69
2022/08/17 10:40:31;;;;;;;8.77;6.33;;;;;;;26.90;55.83;97094.81;5037067;28;20425;-70
2022/08/17 10:43:21;;;;;;;12.00;6.60;;;;;;;26.87;56.67;97084.59;5031697;28;20426;-70
2022/08/17 10:45:54;;;;;;;6.90;6.20;;;;;;;26.83;56.03;97087.00;5031162;28;20514;-70
2022/08/17 10:48:30;;;;;;;9.53;6.20;;;;;;;26.76;55.57;97081.03;5044228;28;20536;-69
2022/08/17 10:50:58;;;;;;;6.20;5.60;;;;;;;26.74;55.41;97104.66;5028634;28;20443;-69
2022/08/17 10:53:37;;;;;;;7.00;5.97;;;;;;;26.74;55.04;97110.03;5024971;28;20427;-69
2022/08/17 10:56:17;;;;;;;7.50;5.90;;;;;;;26.69;55.64;97108.13;5015215;28;21096;-68
2022/08/17 10:58:52;;;;;;;7.27;6.27;;;;;;;26.66;56.70;97103.25;5019003;28;20423;-69
2022/08/17 11:01:42;;;;;;;9.10;6.63;;;;;;;26.55;57.30;97101.56;5029189;28;20434;-68
2022/08/17 11:04:16;;;;;;;9.17;6.30;;;;;;;26.52;56.05;97109.06;5032528;28;20422;-69
2022/08/17 11:07:01;;;;;;;10.07;5.57;;;;;;;26.47;55.54;97111.72;5044918;28;20409;-69
2022/08/17 11:09:49;;;;;;;10.80;5.67;;;;;;;26.41;54.87;97115.44;5030537;28;20430;-69
2022/08/17 11:12:37;;;;;;;5.83;5.23;;;;;;;26.36;54.36;97131.50;5027912;28;20447;-70
2022/08/17 11:15:12;;;;;;;5.83;5.20;;;;;;;26.25;54.51;97129.81;5014780;28;20427;-69
2022/08/17 11:17:50;;;;;;;8.40;5.23;;;;;;;26.20;55.02;97123.34;5031539;28;20975;-70
2022/08/17 11:20:30;;;;;;;6.83;4.93;;;;;;;26.12;54.63;97126.47;5028884;28;20768;-70
2022/08/17 11:23:33;;;;;;;5.67;4.77;;;;;;;26.12;55.16;97131.06;5033515;28;20453;-70
2022/08/17 11:26:02;;;;;;;6.07;5.10;;;;;;;26.09;55.05;97132.31;5034608;28;20537;-71
2022/08/17 11:28:34;;;;;;;5.13;4.63;;;;;;;26.03;55.24;97136.84;5029768;28;20836;-71
2022/08/17 11:31:05;;;;;;;5.97;5.37;;;;;;;25.94;55.47;97140.25;5049257;28;20457;-69
2022/08/17 11:33:31;;;;;;;5.63;4.83;;;;;;;25.85;55.23;97143.38;5027340;28;20444;-69
2022/08/17 11:36:11;;;;;;;6.00;5.40;;;;;;;25.78;55.94;97148.13;5016959;28;20455;-73
2022/08/17 11:38:56;;;;;;;9.53;5.30;;;;;;;25.75;55.43;97138.72;5042108;28;20191;-72
2022/08/17 11:41:36;;;;;;;6.60;5.40;;;;;;;25.72;56.24;97135.72;5022510;28;20443;-70
2022/08/17 11:44:09;;;;;;;10.77;5.63;;;;;;;25.69;56.25;97142.41;5022560;28;20450;-69
2022/08/17 11:52:36;;;;;;;6.13;5.13;;;;;;;25.76;57.67;97150.25;5036893;28;20893;-68
2022/08/17 11:55:03;;;;;;;6.87;4.97;;;;;;;25.75;57.19;97154.00;5044808;28;20786;-68
2022/08/17 11:57:28;;;;;;;8.60;5.00;;;;;;;25.66;56.41;97152.84;5036844;28;20467;-69
2022/08/17 12:00:08;;;;;;;6.00;5.30;;;;;;;25.68;56.76;97142.66;5030507;28;20456;-69
2022/08/17 12:02:37;;;;;;;7.30;5.30;;;;;;;25.70;56.10;97135.19;5025591;28;20689;-70
2022/08/17 12:05:06;;;;;;;5.30;4.70;;;;;;;25.80;55.66;97139.81;5023759;28;20432;-67
2022/08/17 12:07:31;;;;;;;11.47;5.30;;;;;;;25.88;55.78;97124.09;5022152;28;20460;-69
2022/08/17 12:09:58;;;;;;;8.37;5.03;;;;;;;25.90;54.89;97110.41;5030230;28;20854;-70
2022/08/17 12:12:32;;;;;;;5.97;5.10;;;;;;;25.98;55.31;97101.06;5044871;28;20525;-69
2022/08/17 12:14:58;;;;;;;9.10;5.50;;;;;;;26.08;55.27;97093.13;5029356;28;20489;-70
2022/08/17 12:17:29;;;;;;;5.57;4.97;;;;;;;26.14;55.47;97092.13;5036965;28;20480;-69
2022/08/17 12:20:17;;;;;;;5.47;4.93;;;;;;;26.20;55.51;97091.13;5019451;28;20514;-72
2022/08/17 12:22:59;;;;;;;6.27;5.27;;;;;;;26.28;55.95;97086.34;5029611;28;20469;-70